Garden City, MI

11:16 PM EDT on May 29, 2015 (GMT -0400)
Garden City Weather | | Change Station
CLOSE
Current Station
Personal Weather Station
Location: Garden City, MI
Elevation: 640 ft
Nearby Weather Stations

Elev 640 ft 42.32 °N, 83.35 °W | Updated 1 second ago

Partly Cloudy
Partly Cloudy
71.8 °F
Feels Like 71 °F
N
0.0
Wind Variable Wind from SSW
Gusts 1.2 mph

Today
High -- | Low -- °F
--% Chance of Precip.
Yesterday
High -- | Low -- °F
Precip. -- in
6:00 AM 9:00 PM
Waxing Gibbous, 87% visible
Pressure 29.99 in
Visibility 10.0 miles
Clouds Few 4000 ft
Scattered Clouds 20000 ft
Heat Index 71 °F
Dew Point 66 °F
Humidity 83%
Rainfall 0.04 in
Snow Depth Not available.
UV 0 out of 12
Pollen 7.70 out of 12
Air Quality Not available.
Flu Activity Sporadic
METAR KDTW 300253Z 16008KT 10SM FEW040 SCT200 23/19 A3000 RMK AO2 SLP155 T02280189 51003 $

More Conditions Fewer Conditions

Pressure 29.99 in
Visibility 10.0 miles
Clouds Few 4000 ft
Scattered Clouds 20000 ft
Heat Index 71 °F
Dew Point 66 °F
Humidity 83%
Rainfall 0.04 in
Snow Depth Not available.
UV 0 out of 12
Pollen 7.70 out of 12
Air Quality Not available.
Flu Activity Sporadic
METAR KDTW 300253Z 16008KT 10SM FEW040 SCT200 23/19 A3000 RMK AO2 SLP155 T02280189 51003 $

More Conditions Fewer Conditions

10-Day Weather Forecast

Almanac

Astronomy

May. 29, 2015 Rise Set
Actual Time
Civil Twilight
Nautical Twilight
Astronomical Twilight
Moon
Length of Visible Light
Length of Day
Tomorrow will be .
, % of the Moon is Illuminated

Today's Extremes

State Highs State Lows

Community

WunderPhotos

Upload Photos

1,825,438 photos uploaded!

WunderBlogs® & News

Nearby

Air Quality

  Air Quality AQ Index Pollutant
Not available.

Snow Depth

Station Depth Elevation

Earthquake Activity

City Distance Mag. Time & Date
Minimum magnitude displayed is 2.5.

Coastal Water Temperatures

Place Temperature

Stations

Nearby Weather Stations

Station Location Temp. Windchill Dew Point Humidity Wind Precip. Elev Updated Type